sensor_id;sensor_type;location;lat;lon;timestamp;P1;durP1;ratioP1;P2;durP2;ratioP2
4182;SDS011;2105;52.300;9.182;2023-02-07T00:01:25;14.40;;;12.87;;
4182;SDS011;2105;52.300;9.182;2023-02-07T00:03:54;13.57;;;12.27;;
4182;SDS011;2105;52.300;9.182;2023-02-07T00:06:24;13.20;;;12.00;;
4182;SDS011;2105;52.300;9.182;2023-02-07T00:08:52;14.03;;;12.83;;
4182;SDS011;2105;52.300;9.182;2023-02-07T00:11:20;13.63;;;12.27;;
4182;SDS011;2105;52.300;9.182;2023-02-07T00:13:49;13.20;;;12.20;;
4182;SDS011;2105;52.300;9.182;2023-02-07T00:16:16;13.90;;;11.97;;
4182;SDS011;2105;52.300;9.182;2023-02-07T00:18:44;13.90;;;12.50;;
4182;SDS011;2105;52.300;9.182;2023-02-07T00:21:13;13.60;;;12.40;;
4182;SDS011;2105;52.300;9.182;2023-02-07T00:23:41;17.00;;;12.37;;
4182;SDS011;2105;52.300;9.182;2023-02-07T00:26:08;14.20;;;12.90;;
4182;SDS011;2105;52.300;9.182;2023-02-07T00:28:36;13.90;;;12.63;;
4182;SDS011;2105;52.300;9.182;2023-02-07T00:31:04;13.33;;;12.17;;
4182;SDS011;2105;52.300;9.182;2023-02-07T00:33:33;14.00;;;12.60;;
4182;SDS011;2105;52.300;9.182;2023-02-07T00:36:00;13.37;;;12.17;;
4182;SDS011;2105;52.300;9.182;2023-02-07T00:38:29;12.83;;;11.87;;
4182;SDS011;2105;52.300;9.182;2023-02-07T00:40:56;13.47;;;12.37;;
4182;SDS011;2105;52.300;9.182;2023-02-07T00:43:25;13.77;;;12.67;;
4182;SDS011;2105;52.300;9.182;2023-02-07T00:45:53;13.00;;;11.97;;
4182;SDS011;2105;52.300;9.182;2023-02-07T00:48:20;13.40;;;12.20;;
4182;SDS011;2105;52.300;9.182;2023-02-07T00:50:47;14.30;;;13.00;;
4182;SDS011;2105;52.300;9.182;2023-02-07T00:53:13;13.07;;;11.97;;
4182;SDS011;2105;52.300;9.182;2023-02-07T00:55:41;14.13;;;12.63;;
4182;SDS011;2105;52.300;9.182;2023-02-07T00:58:08;13.70;;;12.50;;
4182;SDS011;2105;52.300;9.182;2023-02-07T01:00:35;13.93;;;12.83;;
4182;SDS011;2105;52.300;9.182;2023-02-07T01:03:01;13.63;;;12.53;;
4182;SDS011;2105;52.300;9.182;2023-02-07T01:05:28;14.10;;;12.70;;
4182;SDS011;2105;52.300;9.182;2023-02-07T01:07:55;13.40;;;12.23;;
4182;SDS011;2105;52.300;9.182;2023-02-07T01:10:21;13.33;;;12.33;;
4182;SDS011;2105;52.300;9.182;2023-02-07T01:12:50;14.10;;;12.90;;
4182;SDS011;2105;52.300;9.182;2023-02-07T01:15:17;13.20;;;12.20;;
4182;SDS011;2105;52.300;9.182;2023-02-07T01:17:44;15.10;;;13.70;;
4182;SDS011;2105;52.300;9.182;2023-02-07T01:20:11;14.77;;;13.47;;
4182;SDS011;2105;52.300;9.182;2023-02-07T01:22:38;14.50;;;13.20;;
4182;SDS011;2105;52.300;9.182;2023-02-07T01:25:05;14.53;;;13.10;;
4182;SDS011;2105;52.300;9.182;2023-02-07T01:27:33;15.07;;;13.57;;
4182;SDS011;2105;52.300;9.182;2023-02-07T01:30:02;15.47;;;13.70;;
4182;SDS011;2105;52.300;9.182;2023-02-07T01:32:30;15.57;;;14.07;;
4182;SDS011;2105;52.300;9.182;2023-02-07T01:34:57;14.97;;;13.47;;
4182;SDS011;2105;52.300;9.182;2023-02-07T01:37:24;15.50;;;14.00;;
4182;SDS011;2105;52.300;9.182;2023-02-07T01:39:50;14.10;;;12.80;;
4182;SDS011;2105;52.300;9.182;2023-02-07T01:42:18;16.77;;;13.23;;
4182;SDS011;2105;52.300;9.182;2023-02-07T01:45:00;14.10;;;12.80;;
4182;SDS011;2105;52.300;9.182;2023-02-07T01:47:31;15.13;;;13.47;;
4182;SDS011;2105;52.300;9.182;2023-02-07T01:49:59;15.17;;;13.77;;
4182;SDS011;2105;52.300;9.182;2023-02-07T01:52:28;14.97;;;13.67;;
4182;SDS011;2105;52.300;9.182;2023-02-07T01:55:00;15.70;;;14.30;;
4182;SDS011;2105;52.300;9.182;2023-02-07T01:57:29;15.10;;;12.73;;
4182;SDS011;2105;52.300;9.182;2023-02-07T01:59:56;14.93;;;13.63;;
4182;SDS011;2105;52.300;9.182;2023-02-07T02:02:25;14.07;;;12.77;;
4182;SDS011;2105;52.300;9.182;2023-02-07T02:04:55;14.53;;;13.23;;
4182;SDS011;2105;52.300;9.182;2023-02-07T02:07:23;14.20;;;13.10;;
4182;SDS011;2105;52.300;9.182;2023-02-07T02:09:51;14.90;;;13.70;;
4182;SDS011;2105;52.300;9.182;2023-02-07T02:12:26;14.87;;;13.57;;
4182;SDS011;2105;52.300;9.182;2023-02-07T02:15:04;16.00;;;14.50;;
4182;SDS011;2105;52.300;9.182;2023-02-07T02:17:44;15.10;;;13.80;;
4182;SDS011;2105;52.300;9.182;2023-02-07T02:23:24;15.00;;;13.70;;
4182;SDS011;2105;52.300;9.182;2023-02-07T02:26:08;16.83;;;15.40;;
4182;SDS011;2105;52.300;9.182;2023-02-07T02:29:07;16.47;;;14.80;;
4182;SDS011;2105;52.300;9.182;2023-02-07T02:35:06;17.23;;;15.40;;
4182;SDS011;2105;52.300;9.182;2023-02-07T02:37:39;15.90;;;14.50;;
4182;SDS011;2105;52.300;9.182;2023-02-07T02:40:13;14.80;;;13.50;;
4182;SDS011;2105;52.300;9.182;2023-02-07T02:42:46;15.53;;;14.10;;
4182;SDS011;2105;52.300;9.182;2023-02-07T02:45:19;16.53;;;15.00;;
4182;SDS011;2105;52.300;9.182;2023-02-07T02:47:52;16.90;;;15.40;;
4182;SDS011;2105;52.300;9.182;2023-02-07T02:52:51;16.87;;;15.30;;
4182;SDS011;2105;52.300;9.182;2023-02-07T02:55:19;16.47;;;14.97;;
4182;SDS011;2105;52.300;9.182;2023-02-07T02:57:56;16.43;;;14.93;;
4182;SDS011;2105;52.300;9.182;2023-02-07T03:06:32;16.87;;;14.53;;
4182;SDS011;2105;52.300;9.182;2023-02-07T03:09:05;16.33;;;14.80;;
4182;SDS011;2105;52.300;9.182;2023-02-07T03:11:41;16.20;;;14.90;;
4182;SDS011;2105;52.300;9.182;2023-02-07T03:14:17;17.27;;;14.20;;
4182;SDS011;2105;52.300;9.182;2023-02-07T03:16:49;16.60;;;15.17;;
4182;SDS011;2105;52.300;9.182;2023-02-07T03:19:24;16.77;;;15.07;;
4182;SDS011;2105;52.300;9.182;2023-02-07T03:21:57;16.90;;;15.20;;
4182;SDS011;2105;52.300;9.182;2023-02-07T03:24:28;15.63;;;14.23;;
4182;SDS011;2105;52.300;9.182;2023-02-07T03:26:57;17.17;;;15.57;;
4182;SDS011;2105;52.300;9.182;2023-02-07T03:29:28;20.20;;;16.70;;
4182;SDS011;2105;52.300;9.182;2023-02-07T03:32:03;16.13;;;14.63;;
4182;SDS011;2105;52.300;9.182;2023-02-07T03:34:35;15.33;;;13.90;;
4182;SDS011;2105;52.300;9.182;2023-02-07T03:37:09;16.30;;;14.70;;
4182;SDS011;2105;52.300;9.182;2023-02-07T03:39:41;16.87;;;14.80;;
4182;SDS011;2105;52.300;9.182;2023-02-07T03:42:09;18.70;;;14.77;;
4182;SDS011;2105;52.300;9.182;2023-02-07T03:44:41;15.20;;;13.80;;
4182;SDS011;2105;52.300;9.182;2023-02-07T03:47:10;13.37;;;12.17;;
4182;SDS011;2105;52.300;9.182;2023-02-07T03:49:37;12.50;;;11.30;;
4182;SDS011;2105;52.300;9.182;2023-02-07T03:52:04;12.33;;;11.33;;
4182;SDS011;2105;52.300;9.182;2023-02-07T05:29:21;17.20;;;15.33;;
4182;SDS011;2105;52.300;9.182;2023-02-07T05:45:01;20.10;;;16.07;;
4182;SDS011;2105;52.300;9.182;2023-02-07T05:47:21;18.13;;;15.73;;
4182;SDS011;2105;52.300;9.182;2023-02-07T05:53:25;17.20;;;15.40;;
4182;SDS011;2105;52.300;9.182;2023-02-07T05:56:13;18.40;;;16.03;;
4182;SDS011;2105;52.300;9.182;2023-02-07T06:26:16;18.70;;;16.80;;
4182;SDS011;2105;52.300;9.182;2023-02-07T06:28:58;21.03;;;17.27;;
4182;SDS011;2105;52.300;9.182;2023-02-07T06:38:20;22.20;;;19.10;;
4182;SDS011;2105;52.300;9.182;2023-02-07T06:40:53;24.47;;;19.47;;
4182;SDS011;2105;52.300;9.182;2023-02-07T06:46:53;23.50;;;17.57;;
4182;SDS011;2105;52.300;9.182;2023-02-07T06:49:33;21.70;;;17.47;;
4182;SDS011;2105;52.300;9.182;2023-02-07T06:52:04;20.10;;;17.77;;
4182;SDS011;2105;52.300;9.182;2023-02-07T06:54:33;19.83;;;16.77;;
4182;SDS011;2105;52.300;9.182;2023-02-07T06:57:02;23.40;;;17.40;;
4182;SDS011;2105;52.300;9.182;2023-02-07T06:59:43;19.57;;;17.30;;
4182;SDS011;2105;52.300;9.182;2023-02-07T07:08:43;27.20;;;20.70;;
4182;SDS011;2105;52.300;9.182;2023-02-07T07:11:12;23.60;;;19.27;;
4182;SDS011;2105;52.300;9.182;2023-02-07T07:13:41;23.80;;;18.80;;
4182;SDS011;2105;52.300;9.182;2023-02-07T07:16:20;24.90;;;18.97;;
4182;SDS011;2105;52.300;9.182;2023-02-07T07:18:47;20.67;;;18.20;;
4182;SDS011;2105;52.300;9.182;2023-02-07T07:21:26;23.07;;;18.50;;
4182;SDS011;2105;52.300;9.182;2023-02-07T07:23:56;25.57;;;19.63;;
4182;SDS011;2105;52.300;9.182;2023-02-07T07:26:23;23.63;;;20.40;;
4182;SDS011;2105;52.300;9.182;2023-02-07T07:29:04;22.53;;;19.43;;
4182;SDS011;2105;52.300;9.182;2023-02-07T07:31:45;20.43;;;18.20;;
4182;SDS011;2105;52.300;9.182;2023-02-07T07:34:18;23.60;;;19.53;;
4182;SDS011;2105;52.300;9.182;2023-02-07T07:36:47;22.47;;;18.90;;
4182;SDS011;2105;52.300;9.182;2023-02-07T07:39:14;21.40;;;18.77;;
4182;SDS011;2105;52.300;9.182;2023-02-07T07:41:41;26.90;;;20.87;;
4182;SDS011;2105;52.300;9.182;2023-02-07T07:44:08;29.80;;;21.53;;
4182;SDS011;2105;52.300;9.182;2023-02-07T07:46:35;26.90;;;21.77;;
4182;SDS011;2105;52.300;9.182;2023-02-07T07:49:02;28.27;;;21.40;;
4182;SDS011;2105;52.300;9.182;2023-02-07T07:51:31;29.63;;;22.83;;
4182;SDS011;2105;52.300;9.182;2023-02-07T07:54:01;27.83;;;22.20;;
4182;SDS011;2105;52.300;9.182;2023-02-07T07:56:28;32.40;;;23.43;;
4182;SDS011;2105;52.300;9.182;2023-02-07T07:58:59;31.43;;;24.70;;
4182;SDS011;2105;52.300;9.182;2023-02-07T08:01:26;28.50;;;24.40;;
4182;SDS011;2105;52.300;9.182;2023-02-07T08:03:54;27.13;;;23.17;;
4182;SDS011;2105;52.300;9.182;2023-02-07T08:06:21;28.73;;;23.67;;
4182;SDS011;2105;52.300;9.182;2023-02-07T08:08:48;23.63;;;21.03;;
4182;SDS011;2105;52.300;9.182;2023-02-07T08:11:16;25.70;;;21.10;;
4182;SDS011;2105;52.300;9.182;2023-02-07T08:13:42;22.23;;;19.90;;
4182;SDS011;2105;52.300;9.182;2023-02-07T08:16:09;21.27;;;19.17;;
4182;SDS011;2105;52.300;9.182;2023-02-07T08:18:36;20.33;;;18.23;;
4182;SDS011;2105;52.300;9.182;2023-02-07T08:21:03;20.00;;;18.00;;
4182;SDS011;2105;52.300;9.182;2023-02-07T08:23:37;21.30;;;19.10;;
4182;SDS011;2105;52.300;9.182;2023-02-07T08:26:05;20.13;;;18.20;;
4182;SDS011;2105;52.300;9.182;2023-02-07T08:31:20;21.53;;;19.47;;
4182;SDS011;2105;52.300;9.182;2023-02-07T08:33:46;20.13;;;18.23;;
4182;SDS011;2105;52.300;9.182;2023-02-07T08:36:13;20.60;;;18.50;;
4182;SDS011;2105;52.300;9.182;2023-02-07T08:38:39;22.53;;;20.23;;
4182;SDS011;2105;52.300;9.182;2023-02-07T08:41:06;22.60;;;20.40;;
4182;SDS011;2105;52.300;9.182;2023-02-07T08:43:33;21.77;;;19.67;;
4182;SDS011;2105;52.300;9.182;2023-02-07T08:45:59;22.40;;;20.30;;
4182;SDS011;2105;52.300;9.182;2023-02-07T08:48:27;21.57;;;19.40;;
4182;SDS011;2105;52.300;9.182;2023-02-07T08:50:54;22.70;;;20.60;;
4182;SDS011;2105;52.300;9.182;2023-02-07T08:53:21;21.30;;;19.40;;
4182;SDS011;2105;52.300;9.182;2023-02-07T08:55:47;23.13;;;20.80;;
4182;SDS011;2105;52.300;9.182;2023-02-07T08:58:14;22.93;;;20.53;;
4182;SDS011;2105;52.300;9.182;2023-02-07T09:00:40;23.70;;;21.10;;
4182;SDS011;2105;52.300;9.182;2023-02-07T09:03:07;22.97;;;20.50;;
4182;SDS011;2105;52.300;9.182;2023-02-07T09:05:35;22.00;;;20.00;;
4182;SDS011;2105;52.300;9.182;2023-02-07T09:08:02;23.63;;;21.20;;
4182;SDS011;2105;52.300;9.182;2023-02-07T09:10:29;25.13;;;22.20;;
4182;SDS011;2105;52.300;9.182;2023-02-07T09:12:55;24.63;;;22.17;;
4182;SDS011;2105;52.300;9.182;2023-02-07T09:15:22;23.50;;;21.30;;
4182;SDS011;2105;52.300;9.182;2023-02-07T09:17:50;25.00;;;22.33;;
4182;SDS011;2105;52.300;9.182;2023-02-07T09:20:16;24.60;;;22.10;;
4182;SDS011;2105;52.300;9.182;2023-02-07T09:22:44;24.73;;;22.13;;
4182;SDS011;2105;52.300;9.182;2023-02-07T09:25:29;24.03;;;21.73;;
4182;SDS011;2105;52.300;9.182;2023-02-07T09:27:55;24.73;;;21.90;;
4182;SDS011;2105;52.300;9.182;2023-02-07T09:30:22;23.80;;;21.50;;
4182;SDS011;2105;52.300;9.182;2023-02-07T09:32:48;24.80;;;22.33;;
4182;SDS011;2105;52.300;9.182;2023-02-07T09:35:16;25.00;;;22.40;;
4182;SDS011;2105;52.300;9.182;2023-02-07T09:37:44;25.90;;;22.43;;
4182;SDS011;2105;52.300;9.182;2023-02-07T09:40:12;25.20;;;22.70;;
4182;SDS011;2105;52.300;9.182;2023-02-07T09:42:44;26.10;;;23.50;;
4182;SDS011;2105;52.300;9.182;2023-02-07T09:45:19;25.80;;;23.20;;
4182;SDS011;2105;52.300;9.182;2023-02-07T09:47:49;25.53;;;23.03;;
4182;SDS011;2105;52.300;9.182;2023-02-07T09:50:24;25.70;;;22.93;;
4182;SDS011;2105;52.300;9.182;2023-02-07T09:52:56;26.93;;;23.37;;
4182;SDS011;2105;52.300;9.182;2023-02-07T09:55:28;25.40;;;22.70;;
4182;SDS011;2105;52.300;9.182;2023-02-07T09:58:04;26.20;;;23.20;;
4182;SDS011;2105;52.300;9.182;2023-02-07T10:00:34;29.10;;;23.57;;
4182;SDS011;2105;52.300;9.182;2023-02-07T10:03:03;26.30;;;23.70;;
4182;SDS011;2105;52.300;9.182;2023-02-07T10:05:36;24.30;;;21.90;;
4182;SDS011;2105;52.300;9.182;2023-02-07T10:08:08;25.63;;;22.90;;
4182;SDS011;2105;52.300;9.182;2023-02-07T10:10:38;25.50;;;23.00;;
4182;SDS011;2105;52.300;9.182;2023-02-07T10:13:17;25.57;;;22.80;;
4182;SDS011;2105;52.300;9.182;2023-02-07T10:16:08;24.60;;;22.30;;
4182;SDS011;2105;52.300;9.182;2023-02-07T10:18:44;25.97;;;23.30;;
4182;SDS011;2105;52.300;9.182;2023-02-07T10:21:17;24.90;;;22.40;;
4182;SDS011;2105;52.300;9.182;2023-02-07T10:23:57;29.53;;;23.50;;
4182;SDS011;2105;52.300;9.182;2023-02-07T10:26:42;28.63;;;23.70;;
4182;SDS011;2105;52.300;9.182;2023-02-07T10:32:21;25.87;;;23.27;;
4182;SDS011;2105;52.300;9.182;2023-02-07T10:34:49;25.37;;;22.97;;
4182;SDS011;2105;52.300;9.182;2023-02-07T10:37:21;25.77;;;23.27;;
4182;SDS011;2105;52.300;9.182;2023-02-07T10:39:56;25.47;;;22.97;;
4182;SDS011;2105;52.300;9.182;2023-02-07T10:42:28;30.37;;;24.20;;
4182;SDS011;2105;52.300;9.182;2023-02-07T10:44:58;28.00;;;23.30;;
4182;SDS011;2105;52.300;9.182;2023-02-07T10:47:25;37.73;;;23.53;;
4182;SDS011;2105;52.300;9.182;2023-02-07T10:49:52;26.90;;;24.10;;
4182;SDS011;2105;52.300;9.182;2023-02-07T10:52:25;26.50;;;23.63;;
4182;SDS011;2105;52.300;9.182;2023-02-07T10:54:55;26.97;;;24.17;;
4182;SDS011;2105;52.300;9.182;2023-02-07T10:57:24;26.40;;;23.70;;
4182;SDS011;2105;52.300;9.182;2023-02-07T10:59:59;27.57;;;24.97;;
4182;SDS011;2105;52.300;9.182;2023-02-07T11:02:34;26.87;;;24.17;;
4182;SDS011;2105;52.300;9.182;2023-02-07T11:05:26;27.07;;;24.27;;
4182;SDS011;2105;52.300;9.182;2023-02-07T11:07:55;33.90;;;24.70;;
4182;SDS011;2105;52.300;9.182;2023-02-07T11:10:26;27.03;;;24.33;;
4182;SDS011;2105;52.300;9.182;2023-02-07T11:12:56;28.60;;;25.70;;
4182;SDS011;2105;52.300;9.182;2023-02-07T11:15:26;29.20;;;26.23;;
4182;SDS011;2105;52.300;9.182;2023-02-07T11:17:59;29.23;;;26.23;;
4182;SDS011;2105;52.300;9.182;2023-02-07T11:20:27;29.20;;;26.07;;
4182;SDS011;2105;52.300;9.182;2023-02-07T11:22:56;28.07;;;25.27;;
4182;SDS011;2105;52.300;9.182;2023-02-07T11:25:28;29.00;;;26.00;;
4182;SDS011;2105;52.300;9.182;2023-02-07T11:27:56;27.67;;;24.97;;
4182;SDS011;2105;52.300;9.182;2023-02-07T11:30:25;28.00;;;25.10;;
4182;SDS011;2105;52.300;9.182;2023-02-07T11:32:53;29.30;;;26.13;;
4182;SDS011;2105;52.300;9.182;2023-02-07T11:35:22;28.37;;;25.37;;
4182;SDS011;2105;52.300;9.182;2023-02-07T11:37:57;28.57;;;25.57;;
4182;SDS011;2105;52.300;9.182;2023-02-07T11:40:28;27.73;;;24.93;;
4182;SDS011;2105;52.300;9.182;2023-02-07T11:43:01;28.30;;;23.23;;
4182;SDS011;2105;52.300;9.182;2023-02-07T11:45:34;31.27;;;23.70;;
4182;SDS011;2105;52.300;9.182;2023-02-07T11:48:03;26.53;;;23.53;;
4182;SDS011;2105;52.300;9.182;2023-02-07T11:50:32;32.60;;;23.50;;
4182;SDS011;2105;52.300;9.182;2023-02-07T11:53:03;27.13;;;23.87;;
4182;SDS011;2105;52.300;9.182;2023-02-07T11:55:33;26.40;;;23.30;;
4182;SDS011;2105;52.300;9.182;2023-02-07T11:58:08;28.00;;;23.63;;
4182;SDS011;2105;52.300;9.182;2023-02-07T12:00:36;27.40;;;24.63;;
4182;SDS011;2105;52.300;9.182;2023-02-07T12:03:05;27.57;;;24.90;;
4182;SDS011;2105;52.300;9.182;2023-02-07T12:05:35;27.50;;;24.70;;
4182;SDS011;2105;52.300;9.182;2023-02-07T12:08:05;26.53;;;23.93;;
4182;SDS011;2105;52.300;9.182;2023-02-07T12:10:40;30.20;;;23.53;;
4182;SDS011;2105;52.300;9.182;2023-02-07T12:13:10;30.93;;;23.50;;
4182;SDS011;2105;52.300;9.182;2023-02-07T12:15:40;24.53;;;22.13;;
4182;SDS011;2105;52.300;9.182;2023-02-07T12:18:11;25.83;;;23.23;;
4182;SDS011;2105;52.300;9.182;2023-02-07T12:20:52;26.40;;;23.53;;
4182;SDS011;2105;52.300;9.182;2023-02-07T12:23:24;25.57;;;23.17;;
4182;SDS011;2105;52.300;9.182;2023-02-07T12:26:02;26.47;;;23.87;;
4182;SDS011;2105;52.300;9.182;2023-02-07T12:28:33;25.07;;;22.67;;
4182;SDS011;2105;52.300;9.182;2023-02-07T12:31:10;25.80;;;23.30;;
4182;SDS011;2105;52.300;9.182;2023-02-07T12:33:43;25.43;;;23.03;;
4182;SDS011;2105;52.300;9.182;2023-02-07T12:36:19;25.93;;;23.23;;
4182;SDS011;2105;52.300;9.182;2023-02-07T12:38:51;28.47;;;24.23;;
4182;SDS011;2105;52.300;9.182;2023-02-07T12:41:24;25.60;;;23.20;;
4182;SDS011;2105;52.300;9.182;2023-02-07T12:43:58;25.77;;;23.17;;
4182;SDS011;2105;52.300;9.182;2023-02-07T12:46:34;26.27;;;23.47;;
4182;SDS011;2105;52.300;9.182;2023-02-07T12:49:12;28.50;;;24.03;;
4182;SDS011;2105;52.300;9.182;2023-02-07T12:51:54;28.60;;;24.40;;
4182;SDS011;2105;52.300;9.182;2023-02-07T12:54:34;26.70;;;24.00;;
4182;SDS011;2105;52.300;9.182;2023-02-07T12:57:07;27.73;;;24.83;;
4182;SDS011;2105;52.300;9.182;2023-02-07T12:59:42;27.30;;;24.63;;
4182;SDS011;2105;52.300;9.182;2023-02-07T13:02:23;27.63;;;24.73;;
4182;SDS011;2105;52.300;9.182;2023-02-07T13:05:09;34.93;;;24.80;;
4182;SDS011;2105;52.300;9.182;2023-02-07T13:07:52;29.97;;;25.40;;
4182;SDS011;2105;52.300;9.182;2023-02-07T13:10:25;25.27;;;22.77;;
4182;SDS011;2105;52.300;9.182;2023-02-07T13:13:05;25.10;;;22.67;;
4182;SDS011;2105;52.300;9.182;2023-02-07T13:15:40;25.93;;;23.13;;
4182;SDS011;2105;52.300;9.182;2023-02-07T13:18:12;27.60;;;22.33;;
4182;SDS011;2105;52.300;9.182;2023-02-07T13:20:53;28.83;;;22.43;;
4182;SDS011;2105;52.300;9.182;2023-02-07T13:23:27;26.93;;;21.47;;
4182;SDS011;2105;52.300;9.182;2023-02-07T13:25:55;24.93;;;22.40;;
4182;SDS011;2105;52.300;9.182;2023-02-07T13:28:29;24.47;;;21.93;;
4182;SDS011;2105;52.300;9.182;2023-02-07T13:31:04;25.70;;;23.00;;
4182;SDS011;2105;52.300;9.182;2023-02-07T13:33:34;24.83;;;22.07;;
4182;SDS011;2105;52.300;9.182;2023-02-07T13:36:04;24.60;;;21.93;;
4182;SDS011;2105;52.300;9.182;2023-02-07T13:38:41;25.40;;;21.00;;
4182;SDS011;2105;52.300;9.182;2023-02-07T13:41:19;29.30;;;23.13;;
4182;SDS011;2105;52.300;9.182;2023-02-07T13:43:57;29.10;;;22.80;;
4182;SDS011;2105;52.300;9.182;2023-02-07T13:46:45;25.37;;;22.80;;
4182;SDS011;2105;52.300;9.182;2023-02-07T13:49:34;27.93;;;23.67;;
4182;SDS011;2105;52.300;9.182;2023-02-07T13:52:08;25.50;;;23.00;;
4182;SDS011;2105;52.300;9.182;2023-02-07T13:54:40;26.50;;;23.70;;
4182;SDS011;2105;52.300;9.182;2023-02-07T13:57:19;26.60;;;23.40;;
4182;SDS011;2105;52.300;9.182;2023-02-07T14:00:13;28.23;;;24.00;;
4182;SDS011;2105;52.300;9.182;2023-02-07T14:02:44;33.77;;;24.33;;
4182;SDS011;2105;52.300;9.182;2023-02-07T14:05:18;28.00;;;24.70;;
4182;SDS011;2105;52.300;9.182;2023-02-07T14:07:48;26.90;;;24.10;;
4182;SDS011;2105;52.300;9.182;2023-02-07T14:10:36;26.23;;;23.30;;
4182;SDS011;2105;52.300;9.182;2023-02-07T14:13:18;33.13;;;23.30;;
4182;SDS011;2105;52.300;9.182;2023-02-07T14:15:55;25.23;;;22.60;;
4182;SDS011;2105;52.300;9.182;2023-02-07T14:18:32;24.90;;;21.70;;
4182;SDS011;2105;52.300;9.182;2023-02-07T14:21:22;33.87;;;21.40;;
4182;SDS011;2105;52.300;9.182;2023-02-07T14:23:59;27.20;;;22.90;;
4182;SDS011;2105;52.300;9.182;2023-02-07T14:26:48;34.87;;;22.97;;
4182;SDS011;2105;52.300;9.182;2023-02-07T14:29:39;31.70;;;23.50;;
4182;SDS011;2105;52.300;9.182;2023-02-07T14:32:29;25.47;;;23.07;;
4182;SDS011;2105;52.300;9.182;2023-02-07T14:35:01;26.07;;;23.57;;
4182;SDS011;2105;52.300;9.182;2023-02-07T14:37:35;27.30;;;24.30;;
4182;SDS011;2105;52.300;9.182;2023-02-07T14:40:16;34.10;;;23.30;;
4182;SDS011;2105;52.300;9.182;2023-02-07T14:42:53;27.83;;;22.23;;
4182;SDS011;2105;52.300;9.182;2023-02-07T14:45:22;45.43;;;22.30;;
4182;SDS011;2105;52.300;9.182;2023-02-07T14:47:50;34.70;;;23.03;;
4182;SDS011;2105;52.300;9.182;2023-02-07T14:50:17;28.53;;;21.80;;
4182;SDS011;2105;52.300;9.182;2023-02-07T14:52:48;25.90;;;22.27;;
4182;SDS011;2105;52.300;9.182;2023-02-07T14:55:17;26.20;;;21.40;;
4182;SDS011;2105;52.300;9.182;2023-02-07T14:57:48;29.27;;;22.80;;
4182;SDS011;2105;52.300;9.182;2023-02-07T15:00:29;27.47;;;22.30;;
4182;SDS011;2105;52.300;9.182;2023-02-07T15:03:01;34.77;;;22.77;;
4182;SDS011;2105;52.300;9.182;2023-02-07T15:05:33;30.03;;;21.73;;
4182;SDS011;2105;52.300;9.182;2023-02-07T15:08:06;36.63;;;22.40;;
4182;SDS011;2105;52.300;9.182;2023-02-07T15:10:43;24.80;;;21.97;;
4182;SDS011;2105;52.300;9.182;2023-02-07T15:13:17;30.50;;;22.90;;
4182;SDS011;2105;52.300;9.182;2023-02-07T15:15:49;37.00;;;22.43;;
4182;SDS011;2105;52.300;9.182;2023-02-07T15:18:18;22.33;;;20.07;;
4182;SDS011;2105;52.300;9.182;2023-02-07T15:20:48;21.63;;;19.53;;
4182;SDS011;2105;52.300;9.182;2023-02-07T15:23:17;22.43;;;20.13;;
4182;SDS011;2105;52.300;9.182;2023-02-07T15:25:44;24.20;;;20.37;;
4182;SDS011;2105;52.300;9.182;2023-02-07T15:28:17;24.17;;;21.10;;
4182;SDS011;2105;52.300;9.182;2023-02-07T15:30:56;23.97;;;19.63;;
4182;SDS011;2105;52.300;9.182;2023-02-07T15:33:27;22.70;;;20.60;;
4182;SDS011;2105;52.300;9.182;2023-02-07T15:36:00;22.90;;;20.87;;
4182;SDS011;2105;52.300;9.182;2023-02-07T15:38:28;22.87;;;20.07;;
4182;SDS011;2105;52.300;9.182;2023-02-07T15:40:55;32.63;;;20.70;;
4182;SDS011;2105;52.300;9.182;2023-02-07T15:43:24;22.70;;;20.40;;
4182;SDS011;2105;52.300;9.182;2023-02-07T15:45:57;23.50;;;21.10;;
4182;SDS011;2105;52.300;9.182;2023-02-07T15:48:26;24.00;;;21.77;;
4182;SDS011;2105;52.300;9.182;2023-02-07T15:50:53;23.00;;;20.90;;
4182;SDS011;2105;52.300;9.182;2023-02-07T15:53:23;23.50;;;21.27;;
4182;SDS011;2105;52.300;9.182;2023-02-07T15:55:53;36.53;;;21.13;;
4182;SDS011;2105;52.300;9.182;2023-02-07T15:58:20;28.50;;;21.47;;
4182;SDS011;2105;52.300;9.182;2023-02-07T16:00:49;23.03;;;20.63;;
4182;SDS011;2105;52.300;9.182;2023-02-07T16:03:19;26.10;;;21.00;;
4182;SDS011;2105;52.300;9.182;2023-02-07T16:05:48;22.90;;;20.53;;
4182;SDS011;2105;52.300;9.182;2023-02-07T16:08:27;28.57;;;21.70;;
4182;SDS011;2105;52.300;9.182;2023-02-07T16:11:10;22.57;;;20.67;;
4182;SDS011;2105;52.300;9.182;2023-02-07T16:13:42;24.97;;;22.37;;
4182;SDS011;2105;52.300;9.182;2023-02-07T16:16:14;24.73;;;21.67;;
4182;SDS011;2105;52.300;9.182;2023-02-07T16:18:44;27.03;;;22.60;;
4182;SDS011;2105;52.300;9.182;2023-02-07T16:21:15;22.30;;;20.20;;
4182;SDS011;2105;52.300;9.182;2023-02-07T16:23:44;21.70;;;19.53;;
4182;SDS011;2105;52.300;9.182;2023-02-07T16:26:13;19.83;;;17.83;;
4182;SDS011;2105;52.300;9.182;2023-02-07T16:28:42;20.07;;;18.07;;
4182;SDS011;2105;52.300;9.182;2023-02-07T16:31:09;18.50;;;16.70;;
4182;SDS011;2105;52.300;9.182;2023-02-07T16:33:36;22.60;;;16.00;;
4182;SDS011;2105;52.300;9.182;2023-02-07T16:36:02;17.33;;;15.53;;
4182;SDS011;2105;52.300;9.182;2023-02-07T16:38:31;17.20;;;15.40;;
4182;SDS011;2105;52.300;9.182;2023-02-07T16:40:57;17.40;;;15.70;;
4182;SDS011;2105;52.300;9.182;2023-02-07T16:43:34;20.47;;;18.27;;
4182;SDS011;2105;52.300;9.182;2023-02-07T16:46:03;27.10;;;19.37;;
4182;SDS011;2105;52.300;9.182;2023-02-07T16:48:30;20.53;;;18.33;;
4182;SDS011;2105;52.300;9.182;2023-02-07T16:50:57;24.23;;;19.60;;
4182;SDS011;2105;52.300;9.182;2023-02-07T16:53:25;23.67;;;19.30;;
4182;SDS011;2105;52.300;9.182;2023-02-07T16:55:53;25.37;;;19.10;;
4182;SDS011;2105;52.300;9.182;2023-02-07T16:58:23;22.90;;;18.30;;
4182;SDS011;2105;52.300;9.182;2023-02-07T17:00:51;21.13;;;19.03;;
4182;SDS011;2105;52.300;9.182;2023-02-07T17:03:18;20.63;;;18.47;;
4182;SDS011;2105;52.300;9.182;2023-02-07T17:05:45;20.20;;;18.00;;
4182;SDS011;2105;52.300;9.182;2023-02-07T17:08:13;20.33;;;18.33;;
4182;SDS011;2105;52.300;9.182;2023-02-07T17:10:40;23.80;;;20.50;;
4182;SDS011;2105;52.300;9.182;2023-02-07T17:13:11;24.47;;;20.70;;
4182;SDS011;2105;52.300;9.182;2023-02-07T17:15:37;24.40;;;20.50;;
4182;SDS011;2105;52.300;9.182;2023-02-07T17:18:05;20.50;;;18.50;;
4182;SDS011;2105;52.300;9.182;2023-02-07T17:20:32;22.47;;;19.80;;
4182;SDS011;2105;52.300;9.182;2023-02-07T17:22:59;25.07;;;20.27;;
4182;SDS011;2105;52.300;9.182;2023-02-07T17:25:27;21.53;;;19.23;;
4182;SDS011;2105;52.300;9.182;2023-02-07T17:27:54;19.77;;;17.93;;
4182;SDS011;2105;52.300;9.182;2023-02-07T17:30:24;20.00;;;17.17;;
4182;SDS011;2105;52.300;9.182;2023-02-07T17:32:52;20.00;;;18.10;;
4182;SDS011;2105;52.300;9.182;2023-02-07T17:35:19;21.50;;;18.77;;
4182;SDS011;2105;52.300;9.182;2023-02-07T17:37:46;22.70;;;20.30;;
4182;SDS011;2105;52.300;9.182;2023-02-07T17:40:20;21.00;;;18.83;;
4182;SDS011;2105;52.300;9.182;2023-02-07T17:42:51;18.73;;;16.90;;
4182;SDS011;2105;52.300;9.182;2023-02-07T17:45:17;19.50;;;17.50;;
4182;SDS011;2105;52.300;9.182;2023-02-07T17:47:46;21.17;;;19.00;;
4182;SDS011;2105;52.300;9.182;2023-02-07T17:50:15;22.27;;;20.00;;
4182;SDS011;2105;52.300;9.182;2023-02-07T17:52:43;22.20;;;19.90;;
4182;SDS011;2105;52.300;9.182;2023-02-07T17:55:10;23.47;;;20.97;;
4182;SDS011;2105;52.300;9.182;2023-02-07T17:57:36;22.60;;;20.17;;
4182;SDS011;2105;52.300;9.182;2023-02-07T18:00:05;25.40;;;21.43;;
4182;SDS011;2105;52.300;9.182;2023-02-07T18:02:33;23.07;;;20.50;;
4182;SDS011;2105;52.300;9.182;2023-02-07T18:05:01;21.67;;;19.47;;
4182;SDS011;2105;52.300;9.182;2023-02-07T18:07:28;22.23;;;19.93;;
4182;SDS011;2105;52.300;9.182;2023-02-07T18:09:54;23.23;;;20.73;;